• Join FlightAware (Why Join?)
  • Login
  • US Flag 
09:35AM EDT


 

Airport Tracker/Info


-or-


 

Live Flight TrackerFlight Track Log ✈ N1250V ✈ 14-Jun-2013 ✈ KBJC - KASE

Flight Track Log - Related Links

Times and Time Zones

All times are in EDT time to prevent confusion due to time zone crossing. See the N1250V flight status page for this flight to view local times or setup timezone preferences in your user account.

Time Position Orientation Groundspeed Altitude Reporting Facility
EDT Latitude Longitude Course Direction KTS MPH feet Rate Location/Type
10:27AM 39.9333 -105.1333 247° West 158 182 7,100  Level Denver TRACON
10:28AM 39.9833 -105.1333 360° North 194 223 8,800 1,680 Climbing Denver TRACON
10:29AM 40.0333 -105.1667 333° Northwest 206 237 10,500 1,560 Climbing Denver TRACON
10:30AM 40.0236 -105.1850 235° Southwest 203 234 10,900 1,920 Climbing Denver Center
10:31AM 39.9814 -105.2431 227° Southwest 205 236 13,100 2,040 Climbing Denver Center
10:32AM 39.9433 -105.3003 229° Southwest 207 238 15,200 1,980 Climbing Denver Center
10:33AM 39.7328 -105.5516 247° West  Level FlightAware Approximate
10:33AM 39.9053 -105.3581 229° Southwest 198 228 17,200  Level Denver Center
10:34AM 39.8642 -105.4197 229° Southwest 221 254 18,000 780 Climbing Denver Center
10:35AM 39.8131 -105.4975 229° Southwest 262 302 18,900 480 Climbing Denver Center
10:36AM 39.7908 -105.5886 252° West 267 307 19,000  Climbing Denver Center
10:37AM 39.7647 -105.6889 251° West 292 336 19,000  Level Denver Center
10:38AM 39.7364 -105.7983 251° West 299 344 19,000  Level Denver Center
10:39AM 39.7114 -105.8942 251° West 297 342 19,000  Level Denver Center
10:40AM 39.6822 -105.9975 250° West 301 346 19,000  Level Denver Center
10:41AM 39.6553 -106.0994 251° West 299 344 19,000  Level Denver Center
10:42AM 39.6283 -106.2042 252° West 304 350 19,000  Level Denver Center
10:43AM 39.5956 -106.3253 251° West 297 342 19,000  Level Denver Center
10:44AM 39.5722 -106.4100 250° West 255 293 19,000  Level Denver Center
10:45AM 39.5481 -106.4989 251° West 260 299 19,000  Level Denver Center
10:46AM 39.5200 -106.6008 250° West 271 312 19,000 -300 Level Denver Center
10:47AM 39.4992 -106.6769 250° West 232 267 18,400 -1,080 Descending Denver Center
10:48AM 39.4778 -106.7547 250° West 206 237 16,800 -2,040 Descending Denver Center
10:49AM 39.4614 -106.8150 251° West 189 217 14,300 -1,980 Descending Denver Center
10:50AM 39.4417 -106.8844 250° West 185 213 12,800 -840 Descending Denver Center
10:51AM 39.4139 -106.9425 238° Southwest 200 230 12,600 -660 Descending Denver Center
10:52AM 39.3700 -106.9392 177° South 170 196 11,500 -1,020 Descending Denver Center
10:53AM 39.3306 -106.9197 159° South 158 182 10,500 -1,260 Descending Denver Center
10:54AM 39.2933 -106.9025 160° South 150 173 8,900 -1,020 Descending Denver Center
10:55AM 39.2594 -106.8864 160° South 146 168 8,500 -420 Descending Denver Center
10:57AM 39.2167 -106.8667 176° South  Level FlightAware Approximate